createdAt,value
2019-04-27T00:00:32.767Z,11.8
2019-04-27T00:01:31.633Z,11.8
2019-04-27T00:02:33.266Z,11.8
2019-04-27T00:03:34.941Z,11.8
2019-04-27T00:04:32.834Z,11.8
2019-04-27T00:05:33.635Z,11.8
2019-04-27T00:06:33.658Z,11.8
2019-04-27T00:07:39.317Z,11.8
2019-04-27T00:08:33.339Z,11.8
2019-04-27T00:09:31.958Z,11.8
2019-04-27T00:10:33.407Z,11.8
2019-04-27T00:11:33.179Z,11.8
2019-04-27T00:12:33.092Z,11.8
2019-04-27T00:13:34.709Z,11.8
2019-04-27T00:14:32.910Z,11.8
2019-04-27T00:15:34.376Z,11.8
2019-04-27T00:16:33.671Z,11.7
2019-04-27T00:17:45.137Z,11.7
2019-04-27T00:18:33.844Z,11.7
2019-04-27T00:19:35.314Z,11.7
2019-04-27T00:20:33.210Z,11.7
2019-04-27T00:21:32.802Z,11.7
2019-04-27T00:22:33.429Z,11.7
2019-04-27T00:23:33.963Z,11.7
2019-04-27T00:24:33.510Z,11.7
2019-04-27T00:25:32.835Z,11.7
2019-04-27T00:26:33.404Z,11.8
2019-04-27T00:27:33.471Z,11.8
2019-04-27T00:28:33.175Z,11.8
2019-04-27T00:29:33.147Z,11.8
2019-04-27T00:30:33.330Z,11.8
2019-04-27T00:31:33.625Z,11.8
2019-04-27T00:32:33.193Z,11.8
2019-04-27T00:33:33.892Z,11.8
2019-04-27T00:34:33.953Z,11.8
2019-04-27T00:35:33.514Z,11.8
2019-04-27T00:36:32.859Z,11.8
2019-04-27T00:37:33.977Z,11.8
2019-04-27T00:38:33.420Z,11.7
2019-04-27T00:39:33.047Z,11.7
2019-04-27T00:40:33.509Z,11.7
2019-04-27T00:41:33.962Z,11.7
2019-04-27T00:42:33.306Z,11.7
2019-04-27T00:43:32.906Z,11.7
2019-04-27T00:44:33.842Z,11.7
2019-04-27T00:45:33.499Z,11.7
2019-04-27T00:46:33.096Z,11.7
2019-04-27T00:47:34.887Z,11.7
2019-04-27T00:48:33.316Z,11.7
2019-04-27T00:49:32.995Z,11.7
2019-04-27T00:50:33.759Z,11.7
2019-04-27T00:51:33.312Z,11.7
2019-04-27T00:52:34.712Z,11.6
2019-04-27T00:53:33.487Z,11.6
2019-04-27T00:54:33.958Z,11.6
2019-04-27T00:55:33.327Z,11.6
2019-04-27T00:56:33.819Z,11.6
2019-04-27T00:57:33.227Z,11.6
2019-04-27T00:58:33.072Z,11.6
2019-04-27T00:59:33.103Z,11.6
2019-04-27T01:00:33.698Z,11.6
2019-04-27T01:01:33.366Z,11.6
2019-04-27T01:02:33.159Z,11.6
2019-04-27T01:03:33.260Z,11.6
2019-04-27T01:04:33.978Z,11.6
2019-04-27T01:05:33.727Z,11.6
2019-04-27T01:06:33.646Z,11.6
2019-04-27T01:07:35.806Z,11.6
2019-04-27T01:08:34.232Z,11.6
2019-04-27T01:09:33.855Z,11.6
2019-04-27T01:10:33.555Z,11.6
2019-04-27T01:11:33.482Z,11.6
2019-04-27T01:12:33.508Z,11.6
2019-04-27T01:13:34.966Z,11.5
2019-04-27T01:14:34.229Z,11.5
2019-04-27T01:15:34.026Z,11.5
2019-04-27T01:16:33.666Z,11.5
2019-04-27T01:17:33.725Z,11.5
2019-04-27T01:18:33.756Z,11.5
2019-04-27T01:19:33.813Z,11.5
2019-04-27T01:20:33.866Z,11.5
2019-04-27T01:21:33.939Z,11.6
2019-04-27T01:22:35.023Z,11.6
2019-04-27T01:23:34.039Z,11.6
2019-04-27T01:24:34.099Z,11.6
2019-04-27T01:25:34.136Z,11.6
2019-04-27T01:26:34.189Z,11.6
2019-04-27T01:27:34.239Z,11.6
2019-04-27T01:28:34.300Z,11.6
2019-04-27T01:29:34.340Z,11.6
2019-04-27T01:30:34.407Z,11.6
2019-04-27T01:31:34.453Z,11.6
2019-04-27T01:32:34.482Z,11.5
2019-04-27T01:33:34.525Z,11.5
2019-04-27T01:34:34.587Z,11.5
2019-04-27T01:35:34.628Z,11.5
2019-04-27T01:36:34.663Z,11.5
2019-04-27T01:37:34.727Z,11.5
2019-04-27T01:38:34.763Z,11.5
2019-04-27T01:39:34.868Z,11.5
2019-04-27T01:40:34.852Z,11.5
2019-04-27T01:41:34.912Z,11.5
2019-04-27T01:42:34.946Z,11.5
2019-04-27T01:43:34.996Z,11.5
2019-04-27T01:44:35.020Z,11.5
2019-04-27T01:45:35.098Z,11.5
2019-04-27T01:46:35.067Z,11.5
2019-04-27T01:47:35.120Z,11.5
2019-04-27T01:48:35.138Z,11.5
2019-04-27T01:49:35.200Z,11.5
2019-04-27T01:50:35.216Z,11.5
2019-04-27T01:51:35.271Z,11.5
2019-04-27T01:52:35.301Z,11.5
2019-04-27T01:53:35.345Z,11.5
2019-04-27T01:54:35.373Z,11.4
2019-04-27T01:55:35.383Z,11.4
2019-04-27T01:56:35.421Z,11.4
2019-04-27T01:57:35.494Z,11.4
2019-04-27T01:58:35.499Z,11.4
2019-04-27T01:59:35.549Z,11.4
2019-04-27T02:00:35.518Z,11.4
2019-04-27T02:01:35.543Z,11.4
2019-04-27T02:02:35.544Z,11.4
2019-04-27T02:03:35.544Z,11.4
2019-04-27T02:04:35.565Z,11.4
2019-04-27T02:05:35.594Z,11.4
2019-04-27T02:06:35.599Z,11.4
2019-04-27T02:07:35.731Z,11.4
2019-04-27T02:08:35.631Z,11.4
2019-04-27T02:09:35.661Z,11.4
2019-04-27T02:10:35.667Z,11.4
2019-04-27T02:11:35.693Z,11.4
2019-04-27T02:12:35.712Z,11.4
2019-04-27T02:13:35.740Z,11.4
2019-04-27T02:14:35.748Z,11.4
2019-04-27T02:15:35.756Z,11.4
2019-04-27T02:16:35.779Z,11.3
2019-04-27T02:17:35.799Z,11.3
2019-04-27T02:18:38.147Z,11.3
2019-04-27T02:19:36.005Z,11.3
2019-04-27T02:20:35.823Z,11.3
2019-04-27T02:21:35.831Z,11.3
2019-04-27T02:22:35.839Z,11.3
2019-04-27T02:23:35.855Z,11.4
2019-04-27T02:24:35.860Z,11.4
2019-04-27T02:25:35.876Z,11.3
2019-04-27T02:26:35.871Z,11.3
2019-04-27T02:27:35.902Z,11.3
2019-04-27T02:28:35.898Z,11.3
2019-04-27T02:29:35.879Z,11.3
2019-04-27T02:30:35.908Z,11.3
2019-04-27T02:31:35.901Z,11.3
2019-04-27T02:32:35.919Z,11.3
2019-04-27T02:33:35.913Z,11.3
2019-04-27T02:34:35.914Z,11.3
2019-04-27T02:35:35.999Z,11.3
2019-04-27T02:36:36.063Z,11.3
2019-04-27T02:37:36.114Z,11.3
2019-04-27T02:38:36.136Z,11.3
2019-04-27T02:39:36.187Z,11.3
2019-04-27T02:40:36.203Z,11.3
2019-04-27T02:41:36.285Z,11.3
2019-04-27T02:42:36.327Z,11.3
2019-04-27T02:43:36.377Z,11.3
2019-04-27T02:44:36.359Z,11.3
2019-04-27T02:45:36.435Z,11.3
2019-04-27T02:46:36.507Z,11.3
2019-04-27T02:47:36.502Z,11.3
2019-04-27T02:48:52.744Z,11.3
2019-04-27T02:49:36.592Z,11.3
2019-04-27T02:50:36.654Z,11.3
2019-04-27T02:51:36.630Z,11.3
2019-04-27T02:52:36.717Z,11.3
2019-04-27T02:53:36.735Z,11.3
2019-04-27T02:54:36.817Z,11.3
2019-04-27T02:55:39.342Z,11.3
2019-04-27T02:56:36.923Z,11.3
2019-04-27T02:57:36.955Z,11.3
2019-04-27T02:58:37.019Z,11.3
2019-04-27T02:59:39.606Z,11.3
2019-04-27T03:00:39.718Z,11.3
2019-04-27T03:01:37.157Z,11.3
2019-04-27T03:02:39.487Z,11.3
2019-04-27T03:03:37.255Z,11.3
2019-04-27T03:04:39.528Z,11.3
2019-04-27T03:05:39.577Z,11.3
2019-04-27T03:06:39.613Z,11.3
2019-04-27T03:07:37.407Z,11.3
2019-04-27T03:08:39.296Z,11.3
2019-04-27T03:09:39.474Z,11.3
2019-04-27T03:10:39.711Z,11.3
2019-04-27T03:11:39.501Z,11.3
2019-04-27T03:12:39.813Z,11.3
2019-04-27T03:13:37.695Z,11.3
2019-04-27T03:14:40.088Z,11.3
2019-04-27T03:15:40.149Z,11.3
2019-04-27T03:16:39.435Z,11.3
2019-04-27T03:17:39.505Z,11.3
2019-04-27T03:18:40.281Z,11.3
2019-04-27T03:19:39.762Z,11.3
2019-04-27T03:20:40.032Z,11.3
2019-04-27T03:21:39.548Z,11.3
2019-04-27T03:22:39.761Z,11.3
2019-04-27T03:23:38.089Z,11.3
2019-04-27T03:24:39.414Z,11.3
2019-04-27T03:25:40.025Z,11.4
2019-04-27T03:26:38.972Z,11.4
2019-04-27T03:27:40.453Z,11.4
2019-04-27T03:28:40.097Z,11.4
2019-04-27T03:29:38.941Z,11.4
2019-04-27T03:30:42.225Z,11.4
2019-04-27T03:31:42.383Z,11.4
2019-04-27T03:32:42.348Z,11.4
2019-04-27T03:33:42.591Z,11.4
2019-04-27T03:34:41.726Z,11.4
2019-04-27T03:35:42.630Z,11.4
2019-04-27T03:36:39.495Z,11.4
2019-04-27T03:37:40.319Z,11.4
2019-04-27T03:38:39.610Z,11.4
2019-04-27T03:39:39.632Z,11.4
2019-04-27T03:40:40.273Z,11.4
2019-04-27T03:41:40.896Z,11.4
2019-04-27T03:42:40.223Z,11.4
2019-04-27T03:43:40.175Z,11.4
2019-04-27T03:44:39.759Z,11.4
2019-04-27T03:45:39.900Z,11.4
2019-04-27T03:46:39.650Z,11.4
2019-04-27T03:47:40.572Z,11.4
2019-04-27T03:48:40.657Z,11.4
2019-04-27T03:49:41.478Z,11.4
2019-04-27T03:50:39.772Z,11.4
2019-04-27T03:51:40.179Z,11.4
2019-04-27T03:52:39.689Z,11.4
2019-04-27T03:53:39.599Z,11.4
2019-04-27T03:54:40.027Z,11.4
2019-04-27T03:55:39.684Z,11.4
2019-04-27T03:56:39.675Z,11.4
2019-04-27T03:57:40.174Z,11.4
2019-04-27T03:58:39.730Z,11.4
2019-04-27T03:59:40.514Z,11.4
2019-04-27T04:00:39.812Z,11.4
2019-04-27T04:01:39.684Z,11.4
2019-04-27T04:02:40.402Z,11.4
2019-04-27T04:03:39.480Z,11.4
2019-04-27T04:04:40.515Z,11.4
2019-04-27T04:05:39.769Z,11.4
2019-04-27T04:06:39.853Z,11.4
2019-04-27T04:07:40.143Z,11.4
2019-04-27T04:08:39.773Z,11.4
2019-04-27T04:09:40.122Z,11.4
2019-04-27T04:10:41.623Z,11.4
2019-04-27T04:11:39.618Z,11.5
2019-04-27T04:12:39.988Z,11.5
2019-04-27T04:13:39.829Z,11.5
2019-04-27T04:14:42.219Z,11.5
2019-04-27T04:15:39.901Z,11.5
2019-04-27T04:16:39.571Z,11.5
2019-04-27T04:17:40.184Z,11.5
2019-04-27T04:18:39.680Z,11.5
2019-04-27T04:19:48.713Z,11.5
2019-04-27T04:20:40.379Z,11.5
2019-04-27T04:21:40.118Z,11.5
2019-04-27T04:22:40.297Z,11.5
2019-04-27T04:23:40.201Z,11.5
2019-04-27T04:24:39.789Z,11.5
2019-04-27T04:25:40.863Z,11.5
2019-04-27T04:26:40.170Z,11.6
2019-04-27T04:27:40.049Z,11.6
2019-04-27T04:28:39.657Z,11.6
2019-04-27T04:29:39.657Z,11.6
2019-04-27T04:30:40.193Z,11.6
2019-04-27T04:31:40.330Z,11.6
2019-04-27T04:32:39.697Z,11.6
2019-04-27T04:33:40.244Z,11.6
2019-04-27T04:34:39.982Z,11.6
2019-04-27T04:35:39.983Z,11.6
2019-04-27T04:36:42.400Z,11.6
2019-04-27T04:37:39.716Z,11.6
2019-04-27T04:38:40.215Z,11.6
2019-04-27T04:39:40.422Z,11.6
2019-04-27T04:40:40.126Z,11.6
2019-04-27T04:41:40.496Z,11.6
2019-04-27T04:42:39.893Z,11.6
2019-04-27T04:43:40.092Z,11.6
2019-04-27T04:44:40.247Z,11.6
2019-04-27T04:45:39.997Z,11.6
2019-04-27T04:46:40.162Z,11.6
2019-04-27T04:47:40.797Z,11.6
2019-04-27T04:48:40.467Z,11.6
2019-04-27T04:49:40.221Z,11.6
2019-04-27T04:50:40.304Z,11.6
2019-04-27T04:51:40.367Z,11.6
2019-04-27T04:52:42.377Z,11.6
2019-04-27T04:53:40.716Z,11.6
2019-04-27T04:54:40.942Z,11.6
2019-04-27T04:55:40.427Z,11.6
2019-04-27T04:56:40.491Z,11.6
2019-04-27T04:57:40.543Z,11.6
2019-04-27T04:58:41.350Z,11.6
2019-04-27T04:59:43.590Z,11.6
2019-04-27T05:00:40.681Z,11.6
2019-04-27T05:01:40.736Z,11.6
2019-04-27T05:02:40.775Z,11.6
2019-04-27T05:03:40.842Z,11.7
2019-04-27T05:04:40.848Z,11.7
2019-04-27T05:05:41.338Z,11.7
2019-04-27T05:06:40.879Z,11.7
2019-04-27T05:07:40.907Z,11.7
2019-04-27T05:08:40.969Z,11.7
2019-04-27T05:09:41.010Z,11.7
2019-04-27T05:10:41.063Z,11.7
2019-04-27T05:11:41.089Z,11.7
2019-04-27T05:12:41.184Z,11.8
2019-04-27T05:13:41.197Z,11.8
2019-04-27T05:14:41.251Z,11.8
2019-04-27T05:15:41.285Z,11.8
2019-04-27T05:16:41.373Z,11.8
2019-04-27T05:17:41.366Z,11.8
2019-04-27T05:18:41.394Z,11.8
2019-04-27T05:19:41.417Z,11.8
2019-04-27T05:20:41.470Z,11.9
2019-04-27T05:21:41.517Z,11.9
2019-04-27T05:22:41.542Z,11.9
2019-04-27T05:23:41.604Z,11.9
2019-04-27T05:24:41.654Z,11.9
2019-04-27T05:25:41.688Z,11.9
2019-04-27T05:26:41.704Z,11.9
2019-04-27T05:27:41.726Z,11.9
2019-04-27T05:28:41.774Z,11.9
2019-04-27T05:29:41.830Z,11.9
2019-04-27T05:30:41.845Z,11.9
2019-04-27T05:31:41.922Z,11.9
2019-04-27T05:32:41.919Z,11.9
2019-04-27T05:33:41.969Z,11.9
2019-04-27T05:34:41.998Z,11.9
2019-04-27T05:35:42.042Z,11.9
2019-04-27T05:36:48.452Z,12
2019-04-27T05:37:44.312Z,12
2019-04-27T05:38:45.752Z,12
2019-04-27T05:39:42.193Z,12
2019-04-27T05:40:42.242Z,12.1
2019-04-27T05:41:42.253Z,12.1
2019-04-27T05:42:42.417Z,12.1
2019-04-27T05:43:42.301Z,12.1
2019-04-27T05:44:45.551Z,12.2
2019-04-27T05:45:42.368Z,12.2
2019-04-27T05:46:42.395Z,12.2
2019-04-27T05:47:43.263Z,12.2
2019-04-27T05:48:42.476Z,12.2
2019-04-27T05:49:44.356Z,12.2
2019-04-27T05:50:45.494Z,12.2
2019-04-27T05:51:42.499Z,12.2
2019-04-27T05:52:42.524Z,12.2
2019-04-27T05:53:42.541Z,12.2
2019-04-27T05:54:42.545Z,12.2
2019-04-27T05:55:42.564Z,12.2
2019-04-27T05:56:42.576Z,12.2
2019-04-27T05:57:42.634Z,12.3
2019-04-27T05:58:42.616Z,12.3
2019-04-27T05:59:42.636Z,12.3
2019-04-27T06:00:42.688Z,12.3
2019-04-27T06:01:42.658Z,12.3
2019-04-27T06:02:42.673Z,12.3
2019-04-27T06:03:42.718Z,12.3
2019-04-27T06:04:42.737Z,12.4
2019-04-27T06:05:42.721Z,12.4
2019-04-27T06:06:42.724Z,12.4
2019-04-27T06:07:42.779Z,12.4
2019-04-27T06:08:42.787Z,12.5
2019-04-27T06:09:42.777Z,12.5
2019-04-27T06:10:45.006Z,12.5
2019-04-27T06:11:42.763Z,12.5
2019-04-27T06:12:42.780Z,12.5
2019-04-27T06:13:42.787Z,12.5
2019-04-27T06:14:42.787Z,12.5
2019-04-27T06:15:42.797Z,12.6
2019-04-27T06:16:42.840Z,12.5
2019-04-27T06:17:42.949Z,12.6
2019-04-27T06:18:42.973Z,12.6
2019-04-27T06:19:43.907Z,12.6
2019-04-27T06:20:53.164Z,12.6
2019-04-27T06:21:43.158Z,12.6
2019-04-27T06:22:43.322Z,12.6
2019-04-27T06:23:43.273Z,12.6
2019-04-27T06:24:43.330Z,12.6
2019-04-27T06:25:43.349Z,12.6
2019-04-27T06:26:43.437Z,12.6
2019-04-27T06:27:43.487Z,12.7
2019-04-27T06:28:43.542Z,12.7
2019-04-27T06:29:43.549Z,12.7
2019-04-27T06:30:43.556Z,12.7
2019-04-27T06:31:43.553Z,12.7
2019-04-27T06:32:43.633Z,12.7
2019-04-27T06:33:43.676Z,12.7
2019-04-27T06:34:43.721Z,12.7
2019-04-27T06:35:43.765Z,12.7
2019-04-27T06:36:43.851Z,12.8
2019-04-27T06:37:43.889Z,12.8
2019-04-27T06:38:43.932Z,12.8
2019-04-27T06:39:43.984Z,12.8
2019-04-27T06:40:43.974Z,12.8
2019-04-27T06:41:44.018Z,12.8
2019-04-27T06:42:44.068Z,12.8
2019-04-27T06:43:44.123Z,12.8
2019-04-27T06:44:44.143Z,12.9
2019-04-27T06:45:44.180Z,12.9
2019-04-27T06:46:44.213Z,12.9
2019-04-27T06:47:44.257Z,13
2019-04-27T06:48:44.306Z,13
2019-04-27T06:49:44.357Z,13
2019-04-27T06:50:44.400Z,13
2019-04-27T06:51:44.477Z,13
2019-04-27T06:52:44.525Z,13
2019-04-27T06:53:44.660Z,13
2019-04-27T06:54:44.612Z,13.1
2019-04-27T06:55:44.661Z,13.1
2019-04-27T06:56:44.681Z,13.1
2019-04-27T06:57:44.691Z,13.2
2019-04-27T06:58:44.769Z,13.2
2019-04-27T06:59:44.765Z,13.2
2019-04-27T07:00:44.790Z,13.2
2019-04-27T07:01:44.836Z,13.2
2019-04-27T07:02:44.960Z,13.3
2019-04-27T07:03:44.935Z,13.3
2019-04-27T07:04:44.950Z,13.3
2019-04-27T07:05:45.022Z,13.4
2019-04-27T07:06:53.136Z,13.4
2019-04-27T07:07:45.091Z,13.4
2019-04-27T07:08:45.165Z,13.5
2019-04-27T07:09:45.124Z,13.5
2019-04-27T07:10:45.142Z,13.5
2019-04-27T07:11:45.182Z,13.5
2019-04-27T07:12:45.219Z,13.5
2019-04-27T07:13:45.256Z,13.5
2019-04-27T07:14:52.737Z,13.5
2019-04-27T07:15:45.322Z,13.5
2019-04-27T07:16:45.358Z,13.5
2019-04-27T07:17:45.399Z,13.6
2019-04-27T07:18:45.432Z,13.6
2019-04-27T07:19:45.479Z,13.6
2019-04-27T07:20:45.497Z,13.6
2019-04-27T07:21:45.525Z,13.6
2019-04-27T07:22:45.559Z,13.6
2019-04-27T07:23:45.599Z,13.6
2019-04-27T07:24:45.613Z,13.6
2019-04-27T07:25:45.651Z,13.7
2019-04-27T07:26:45.647Z,13.7
2019-04-27T07:27:45.695Z,13.7
2019-04-27T07:28:45.692Z,13.8
2019-04-27T07:29:45.704Z,13.8
2019-04-27T07:30:45.711Z,13.9
2019-04-27T07:31:45.727Z,13.9
2019-04-27T07:32:45.760Z,13.9
2019-04-27T07:33:45.773Z,13.9
2019-04-27T07:34:45.767Z,14
2019-04-27T07:35:45.790Z,14
2019-04-27T07:36:45.832Z,14.1
2019-04-27T07:37:45.846Z,14.1
2019-04-27T07:38:45.848Z,14.2
2019-04-27T07:39:45.875Z,14.2
2019-04-27T07:40:45.893Z,14.2
2019-04-27T07:41:45.905Z,14.3
2019-04-27T07:42:46.114Z,14.3
2019-04-27T07:43:45.953Z,14.3
2019-04-27T07:44:45.974Z,14.4
2019-04-27T07:45:45.988Z,14.4
2019-04-27T07:46:46.024Z,14.5
2019-04-27T07:47:46.031Z,14.5
2019-04-27T07:48:46.057Z,14.6
2019-04-27T07:49:46.100Z,14.6
2019-04-27T07:50:46.064Z,14.7
2019-04-27T07:51:46.068Z,14.8
2019-04-27T07:52:46.098Z,14.8
2019-04-27T07:53:46.115Z,14.9
2019-04-27T07:54:46.141Z,15
2019-04-27T07:55:46.127Z,15
2019-04-27T07:56:46.156Z,15.1
2019-04-27T07:57:46.156Z,15.1
2019-04-27T07:58:46.162Z,15.1
2019-04-27T07:59:46.175Z,15.2
2019-04-27T08:00:46.219Z,15.2
2019-04-27T08:01:46.227Z,15.2
2019-04-27T08:02:46.217Z,15.2
2019-04-27T08:03:46.217Z,15.2
2019-04-27T08:04:47.860Z,15.3
2019-04-27T08:05:46.282Z,15.3
2019-04-27T08:06:46.264Z,15.3
2019-04-27T08:07:46.240Z,15.3
2019-04-27T08:08:49.185Z,15.3
2019-04-27T08:09:46.239Z,15.4
2019-04-27T08:10:53.909Z,15.4
2019-04-27T08:11:46.239Z,15.4
2019-04-27T08:12:46.260Z,15.5
2019-04-27T08:13:46.313Z,15.5
2019-04-27T08:14:46.340Z,15.5
2019-04-27T08:15:46.423Z,15.5
2019-04-27T08:16:46.488Z,15.6
2019-04-27T08:17:46.561Z,15.6
2019-04-27T08:18:46.563Z,15.6
2019-04-27T08:19:46.572Z,15.6
2019-04-27T08:20:46.645Z,15.6
2019-04-27T08:21:46.715Z,15.6
2019-04-27T08:22:46.734Z,15.6
2019-04-27T08:23:46.773Z,15.6
2019-04-27T08:24:46.847Z,15.6
2019-04-27T08:25:48.745Z,15.6
2019-04-27T08:26:47.013Z,15.6
2019-04-27T08:27:47.012Z,15.6
2019-04-27T08:28:48.216Z,15.6
2019-04-27T08:29:48.590Z,15.7
2019-04-27T08:30:48.751Z,15.7
2019-04-27T08:31:48.601Z,15.8
2019-04-27T08:32:49.534Z,15.8
2019-04-27T08:33:48.624Z,15.9
2019-04-27T08:34:47.388Z,15.9
2019-04-27T08:35:48.862Z,16
2019-04-27T08:36:47.446Z,16
2019-04-27T08:37:49.257Z,16
2019-04-27T08:38:48.879Z,16.1
2019-04-27T08:39:49.386Z,16.1
2019-04-27T08:40:49.224Z,16.1
2019-04-27T08:41:49.310Z,16.1
2019-04-27T08:42:49.157Z,16.1
2019-04-27T08:43:48.799Z,16.1
2019-04-27T08:44:49.648Z,16.2
2019-04-27T08:45:48.770Z,16.3
2019-04-27T08:46:49.505Z,16.3
2019-04-27T08:47:49.697Z,16.4
2019-04-27T08:48:48.978Z,16.4
2019-04-27T08:49:49.113Z,16.4
2019-04-27T08:50:48.583Z,16.4
2019-04-27T08:51:56.993Z,16.4
2019-04-27T08:52:50.095Z,16.5
2019-04-27T08:53:49.905Z,16.5
2019-04-27T08:54:49.094Z,16.5
2019-04-27T08:55:49.397Z,16.6
2019-04-27T08:56:49.400Z,16.6
2019-04-27T08:57:48.853Z,16.6
2019-04-27T08:58:49.652Z,16.7
2019-04-27T08:59:48.934Z,16.7
2019-04-27T09:00:49.037Z,16.9
2019-04-27T09:01:49.253Z,17
2019-04-27T09:02:50.206Z,17.1
2019-04-27T09:03:49.494Z,17.2
2019-04-27T09:04:49.515Z,17.3
2019-04-27T09:05:49.060Z,17.5
2019-04-27T09:06:49.325Z,17.6
2019-04-27T09:07:49.605Z,17.7
2019-04-27T09:08:49.496Z,17.7
2019-04-27T09:09:49.766Z,17.9
2019-04-27T09:10:48.968Z,18
2019-04-27T09:11:49.364Z,18.1
2019-04-27T09:12:49.747Z,18.2
2019-04-27T09:13:48.872Z,18.3
2019-04-27T09:14:49.434Z,18.3
2019-04-27T09:15:49.415Z,18.3
2019-04-27T09:16:59.374Z,18.4
2019-04-27T09:17:48.991Z,18.4
2019-04-27T09:18:49.800Z,18.5
2019-04-27T09:19:49.226Z,18.5
2019-04-27T09:20:49.210Z,18.5
2019-04-27T09:21:49.076Z,18.5
2019-04-27T09:22:49.321Z,18.5
2019-04-27T09:23:49.129Z,18.5
2019-04-27T09:24:49.449Z,18.6
2019-04-27T09:25:49.653Z,18.6
2019-04-27T09:26:49.298Z,18.6
2019-04-27T09:27:49.404Z,18.7
2019-04-27T09:28:49.359Z,18.8
2019-04-27T09:29:49.925Z,18.8
2019-04-27T09:30:49.757Z,18.8
2019-04-27T09:31:49.253Z,18.9
2019-04-27T09:32:49.275Z,18.9
2019-04-27T09:33:49.275Z,18.9
2019-04-27T09:34:49.291Z,19
2019-04-27T09:35:50.046Z,19
2019-04-27T09:36:51.625Z,18.9
2019-04-27T09:37:49.333Z,18.9
2019-04-27T09:38:52.336Z,18.9
2019-04-27T09:39:49.331Z,19
2019-04-27T09:40:49.379Z,19.1
2019-04-27T09:41:49.348Z,19.1
2019-04-27T09:42:49.369Z,19.1
2019-04-27T09:43:49.363Z,19.2
2019-04-27T09:44:49.389Z,19.2
2019-04-27T09:45:49.371Z,19.2
2019-04-27T09:46:49.362Z,19.2
2019-04-27T09:47:49.392Z,19.2
2019-04-27T09:48:49.462Z,19.3
2019-04-27T09:49:49.443Z,19.4
2019-04-27T09:50:49.621Z,19.4
2019-04-27T09:51:49.524Z,19.5
2019-04-27T09:52:49.601Z,19.5
2019-04-27T09:53:49.601Z,19.5
2019-04-27T09:54:49.688Z,19.4
2019-04-27T09:55:49.729Z,19.3
2019-04-27T09:56:49.735Z,19.3
2019-04-27T09:57:49.815Z,19.3
2019-04-27T09:58:49.904Z,19.2
2019-04-27T09:59:49.931Z,19.1
2019-04-27T10:00:49.935Z,19.1
2019-04-27T10:01:50.000Z,19
2019-04-27T10:02:50.073Z,18.9
2019-04-27T10:03:50.111Z,18.9
2019-04-27T10:04:50.182Z,18.8
2019-04-27T10:05:50.191Z,18.8
2019-04-27T10:06:50.259Z,18.8
2019-04-27T10:07:50.330Z,18.8
2019-04-27T10:08:50.325Z,18.8
2019-04-27T10:09:50.385Z,18.8
2019-04-27T10:10:50.403Z,18.8
2019-04-27T10:11:50.438Z,18.8
2019-04-27T10:12:50.479Z,18.8
2019-04-27T10:13:50.541Z,18.8
2019-04-27T10:14:50.604Z,18.7
2019-04-27T10:15:50.633Z,18.7
2019-04-27T10:16:50.649Z,18.7
2019-04-27T10:17:50.712Z,18.6
2019-04-27T10:18:50.751Z,18.6
2019-04-27T10:19:50.832Z,18.6
2019-04-27T10:20:59.549Z,18.6
2019-04-27T10:21:50.902Z,18.7
2019-04-27T10:22:51.085Z,18.7
2019-04-27T10:23:51.109Z,18.7
2019-04-27T10:24:51.063Z,18.7
2019-04-27T10:25:51.286Z,18.7
2019-04-27T10:26:51.126Z,18.7
2019-04-27T10:27:51.163Z,18.7
2019-04-27T10:28:51.180Z,18.7
2019-04-27T10:29:51.226Z,18.7
2019-04-27T10:30:51.276Z,18.7
2019-04-27T10:31:51.293Z,18.7
2019-04-27T10:32:51.350Z,18.7
2019-04-27T10:33:51.384Z,18.7
2019-04-27T10:34:51.423Z,18.7
2019-04-27T10:35:51.539Z,18.6
2019-04-27T10:36:51.467Z,18.6
2019-04-27T10:37:51.564Z,18.5
2019-04-27T10:38:51.559Z,18.5
2019-04-27T10:39:51.573Z,18.5
2019-04-27T10:40:51.663Z,18.6
2019-04-27T10:41:51.670Z,18.6
2019-04-27T10:42:51.692Z,18.5
2019-04-27T10:43:51.760Z,18.6
2019-04-27T10:44:51.773Z,18.6
2019-04-27T10:45:51.789Z,18.5
2019-04-27T10:46:51.809Z,18.5
2019-04-27T10:47:51.853Z,18.5
2019-04-27T10:48:51.893Z,18.4
2019-04-27T10:49:51.924Z,18.4
2019-04-27T10:50:51.973Z,18.4
2019-04-27T10:51:52.005Z,18.3
2019-04-27T10:52:53.513Z,18.3
2019-04-27T10:53:52.003Z,18.2
2019-04-27T10:54:52.064Z,18.1
2019-04-27T10:55:52.039Z,18.1
2019-04-27T10:56:52.093Z,18.1
2019-04-27T10:57:52.096Z,18.1
2019-04-27T10:58:52.133Z,18.1
2019-04-27T10:59:52.206Z,18
2019-04-27T11:00:52.142Z,18
2019-04-27T11:01:52.140Z,18
2019-04-27T11:02:52.161Z,18
2019-04-27T11:03:52.186Z,18
2019-04-27T11:04:52.198Z,18
2019-04-27T11:05:52.178Z,18
2019-04-27T11:06:52.257Z,18
2019-04-27T11:07:52.398Z,18
2019-04-27T11:08:52.264Z,18.1
2019-04-27T11:09:52.258Z,18.1
2019-04-27T11:10:52.256Z,18.2
2019-04-27T11:11:52.277Z,18.2
2019-04-27T11:12:52.312Z,18.3
2019-04-27T11:13:52.312Z,18.3
2019-04-27T11:14:52.288Z,18.4
2019-04-27T11:15:52.288Z,18.4
2019-04-27T11:16:55.989Z,18.5
2019-04-27T11:17:52.299Z,18.6
2019-04-27T11:18:52.298Z,18.8
2019-04-27T11:19:52.349Z,18.9
2019-04-27T11:20:52.428Z,19.1
2019-04-27T11:21:52.451Z,19.2
2019-04-27T11:22:52.522Z,19.3
2019-04-27T11:23:52.598Z,19.4
2019-04-27T11:24:52.623Z,19.6
2019-04-27T11:25:52.619Z,19.8
2019-04-27T11:26:52.695Z,20
2019-04-27T11:27:52.748Z,20.1
2019-04-27T11:28:52.808Z,20.4
2019-04-27T11:29:52.857Z,20.6
2019-04-27T11:30:52.973Z,20.8
2019-04-27T11:31:52.932Z,21
2019-04-27T11:32:54.479Z,21
2019-04-27T11:33:53.015Z,21.1
2019-04-27T11:34:53.046Z,21.1
2019-04-27T11:35:53.137Z,21.1
2019-04-27T11:36:53.211Z,21.2
2019-04-27T11:37:53.214Z,21.3
2019-04-27T11:38:53.215Z,21.3
2019-04-27T11:39:53.265Z,21.4
2019-04-27T11:40:53.341Z,21.6
2019-04-27T11:41:53.346Z,21.7
2019-04-27T11:42:53.381Z,21.8
2019-04-27T11:43:53.392Z,21.9
2019-04-27T11:44:56.081Z,22
2019-04-27T11:45:53.440Z,22
2019-04-27T11:46:53.459Z,21.9
2019-04-27T11:47:53.563Z,21.9
2019-04-27T11:48:53.569Z,21.9
2019-04-27T11:49:53.652Z,21.9
2019-04-27T11:50:53.644Z,22
2019-04-27T11:51:53.647Z,22
2019-04-27T11:52:53.690Z,21.9
2019-04-27T11:53:53.756Z,21.8
2019-04-27T11:54:55.515Z,21.7
2019-04-27T11:55:53.832Z,21.5
2019-04-27T11:56:55.911Z,21.4
2019-04-27T11:57:55.796Z,21.3
2019-04-27T11:58:53.940Z,21.2
2019-04-27T11:59:58.024Z,21.2
2019-04-27T12:00:54.133Z,21.1
2019-04-27T12:01:55.735Z,21.1
2019-04-27T12:02:54.121Z,21.2
2019-04-27T12:03:55.604Z,21.3
2019-04-27T12:04:54.183Z,21.5
2019-04-27T12:05:54.306Z,21.6
2019-04-27T12:06:54.251Z,21.7
2019-04-27T12:07:56.039Z,21.8
2019-04-27T12:08:54.305Z,21.8
2019-04-27T12:09:55.518Z,21.8
2019-04-27T12:10:55.668Z,21.7
2019-04-27T12:11:55.873Z,21.6
2019-04-27T12:12:56.167Z,21.6
2019-04-27T12:13:56.120Z,21.5
2019-04-27T12:14:56.023Z,21.3
2019-04-27T12:15:54.580Z,21.2
2019-04-27T12:16:56.032Z,21.1
2019-04-27T12:17:56.084Z,20.9
2019-04-27T12:18:56.209Z,20.8
2019-04-27T12:19:55.770Z,20.7
2019-04-27T12:20:55.764Z,20.7
2019-04-27T12:21:56.333Z,20.6
2019-04-27T12:22:54.793Z,20.5
2019-04-27T12:23:54.800Z,20.5
2019-04-27T12:24:56.138Z,20.6
2019-04-27T12:25:56.294Z,20.7
2019-04-27T12:26:55.544Z,20.7
2019-04-27T12:27:54.901Z,20.8
2019-04-27T12:28:56.060Z,20.8
2019-04-27T12:29:55.808Z,20.8
2019-04-27T12:30:55.089Z,20.8
2019-04-27T12:31:56.162Z,20.8
2019-04-27T12:32:55.754Z,20.7
2019-04-27T12:33:56.003Z,20.7
2019-04-27T12:34:56.519Z,20.6
2019-04-27T12:35:56.681Z,20.5
2019-04-27T12:36:55.131Z,20.5
2019-04-27T12:37:55.967Z,20.4
2019-04-27T12:38:56.605Z,20.3
2019-04-27T12:39:55.441Z,20.2
2019-04-27T12:40:56.512Z,20.1
2019-04-27T12:41:56.023Z,20.1
2019-04-27T12:42:55.361Z,20
2019-04-27T12:43:56.026Z,20
2019-04-27T12:44:55.300Z,20
2019-04-27T12:45:55.894Z,20.1
2019-04-27T12:46:57.410Z,20.2
2019-04-27T12:47:56.530Z,20.4
2019-04-27T12:48:57.145Z,20.5
2019-04-27T12:49:57.353Z,20.7
2019-04-27T12:50:56.287Z,20.9
2019-04-27T12:51:55.846Z,21
2019-04-27T12:52:55.418Z,21.1
2019-04-27T12:53:55.950Z,21.2
2019-04-27T12:54:55.483Z,21.3
2019-04-27T12:55:56.507Z,21.3
2019-04-27T12:56:55.807Z,21.3
2019-04-27T12:57:55.459Z,21.3
2019-04-27T12:58:56.423Z,21.2
2019-04-27T12:59:56.556Z,21.2
2019-04-27T13:00:55.487Z,21
2019-04-27T13:01:56.097Z,21
2019-04-27T13:02:57.522Z,20.9
2019-04-27T13:03:58.537Z,20.8
2019-04-27T13:04:56.745Z,20.7
2019-04-27T13:05:55.562Z,20.6
2019-04-27T13:06:55.895Z,20.5
2019-04-27T13:07:55.646Z,20.4
2019-04-27T13:08:55.894Z,20.3
2019-04-27T13:09:56.355Z,20.3
2019-04-27T13:10:57.345Z,20.3
2019-04-27T13:11:56.089Z,20.2
2019-04-27T13:12:56.212Z,20.2
2019-04-27T13:13:57.580Z,20.2
2019-04-27T13:14:56.055Z,20.2
2019-04-27T13:15:56.370Z,20.2
2019-04-27T13:16:56.210Z,20.2
2019-04-27T13:17:57.376Z,20.1
2019-04-27T13:18:57.492Z,20.1
2019-04-27T13:19:56.251Z,20.1
2019-04-27T13:20:56.288Z,20
2019-04-27T13:21:56.345Z,20